sensor_id;sensor_type;location;lat;lon;timestamp;P1;durP1;ratioP1;P2;durP2;ratioP2
73850;SDS011;62190;51.548;5.688;2022-09-03T00:00:02;6.42;;;3.15;;
73850;SDS011;62190;51.548;5.688;2022-09-03T00:02:43;9.30;;;2.52;;
73850;SDS011;62190;51.548;5.688;2022-09-03T00:05:39;6.00;;;2.67;;
73850;SDS011;62190;51.548;5.688;2022-09-03T00:11:28;6.75;;;3.12;;
73850;SDS011;62190;51.548;5.688;2022-09-03T00:14:15;7.67;;;3.15;;
73850;SDS011;62190;51.548;5.688;2022-09-03T00:16:45;6.42;;;3.08;;
73850;SDS011;62190;51.548;5.688;2022-09-03T00:19:18;5.90;;;3.60;;
73850;SDS011;62190;51.548;5.688;2022-09-03T00:21:48;7.72;;;2.75;;
73850;SDS011;62190;51.548;5.688;2022-09-03T00:24:17;5.78;;;2.72;;
73850;SDS011;62190;51.548;5.688;2022-09-03T00:26:49;5.10;;;2.70;;
73850;SDS011;62190;51.548;5.688;2022-09-03T00:29:28;7.08;;;3.37;;
73850;SDS011;62190;51.548;5.688;2022-09-03T00:31:53;5.75;;;2.80;;
73850;SDS011;62190;51.548;5.688;2022-09-03T00:34:23;4.05;;;2.60;;
73850;SDS011;62190;51.548;5.688;2022-09-03T00:36:52;5.67;;;2.70;;
73850;SDS011;62190;51.548;5.688;2022-09-03T00:39:24;7.12;;;2.90;;
73850;SDS011;62190;51.548;5.688;2022-09-03T00:44:47;5.67;;;2.77;;
73850;SDS011;62190;51.548;5.688;2022-09-03T00:55:48;5.45;;;2.72;;
73850;SDS011;62190;51.548;5.688;2022-09-03T01:01:04;5.22;;;2.87;;
73850;SDS011;62190;51.548;5.688;2022-09-03T01:03:40;6.42;;;2.35;;
73850;SDS011;62190;51.548;5.688;2022-09-03T01:06:23;6.25;;;2.70;;
73850;SDS011;62190;51.548;5.688;2022-09-03T01:09:02;5.87;;;2.72;;
73850;SDS011;62190;51.548;5.688;2022-09-03T01:11:49;5.50;;;2.70;;
73850;SDS011;62190;51.548;5.688;2022-09-03T01:17:16;4.37;;;2.20;;
73850;SDS011;62190;51.548;5.688;2022-09-03T01:34:21;5.62;;;2.40;;
73850;SDS011;62190;51.548;5.688;2022-09-03T01:37:07;6.15;;;2.83;;
73850;SDS011;62190;51.548;5.688;2022-09-03T01:48:09;3.90;;;2.37;;
73850;SDS011;62190;51.548;5.688;2022-09-03T01:50:49;6.65;;;2.50;;
73850;SDS011;62190;51.548;5.688;2022-09-03T01:56:30;12.05;;;2.52;;
73850;SDS011;62190;51.548;5.688;2022-09-03T02:01:44;4.50;;;2.02;;
73850;SDS011;62190;51.548;5.688;2022-09-03T02:04:19;4.70;;;2.22;;
73850;SDS011;62190;51.548;5.688;2022-09-03T02:06:45;6.10;;;2.33;;
73850;SDS011;62190;51.548;5.688;2022-09-03T02:09:14;4.33;;;2.30;;
73850;SDS011;62190;51.548;5.688;2022-09-03T02:11:42;6.03;;;2.77;;
73850;SDS011;62190;51.548;5.688;2022-09-03T02:14:11;9.68;;;2.50;;
73850;SDS011;62190;51.548;5.688;2022-09-03T02:16:39;6.50;;;2.30;;
73850;SDS011;62190;51.548;5.688;2022-09-03T02:19:10;5.10;;;2.35;;
73850;SDS011;62190;51.548;5.688;2022-09-03T02:21:39;5.92;;;1.98;;
73850;SDS011;62190;51.548;5.688;2022-09-03T02:24:15;3.98;;;2.12;;
73850;SDS011;62190;51.548;5.688;2022-09-03T02:26:42;6.22;;;2.45;;
73850;SDS011;62190;51.548;5.688;2022-09-03T02:29:12;5.45;;;2.30;;
73850;SDS011;62190;51.548;5.688;2022-09-03T02:31:45;6.25;;;2.12;;
73850;SDS011;62190;51.548;5.688;2022-09-03T02:34:12;4.42;;;2.50;;
73850;SDS011;62190;51.548;5.688;2022-09-03T02:36:40;4.55;;;2.30;;
73850;SDS011;62190;51.548;5.688;2022-09-03T02:39:11;3.85;;;1.87;;
73850;SDS011;62190;51.548;5.688;2022-09-03T02:41:41;7.47;;;2.33;;
73850;SDS011;62190;51.548;5.688;2022-09-03T02:44:16;6.08;;;2.45;;
73850;SDS011;62190;51.548;5.688;2022-09-03T02:46:50;4.62;;;2.33;;
73850;SDS011;62190;51.548;5.688;2022-09-03T02:49:17;3.72;;;2.40;;
73850;SDS011;62190;51.548;5.688;2022-09-03T02:51:45;7.20;;;1.92;;
73850;SDS011;62190;51.548;5.688;2022-09-03T02:54:13;4.42;;;2.12;;
73850;SDS011;62190;51.548;5.688;2022-09-03T02:56:41;4.65;;;2.20;;
73850;SDS011;62190;51.548;5.688;2022-09-03T02:59:08;3.72;;;2.15;;
73850;SDS011;62190;51.548;5.688;2022-09-03T03:01:35;3.85;;;2.10;;
73850;SDS011;62190;51.548;5.688;2022-09-03T03:04:03;2.77;;;1.98;;
73850;SDS011;62190;51.548;5.688;2022-09-03T03:06:30;5.70;;;2.35;;
73850;SDS011;62190;51.548;5.688;2022-09-03T03:08:57;5.90;;;2.30;;
73850;SDS011;62190;51.548;5.688;2022-09-03T03:11:26;3.35;;;2.20;;
73850;SDS011;62190;51.548;5.688;2022-09-03T03:13:55;3.30;;;2.02;;
73850;SDS011;62190;51.548;5.688;2022-09-03T03:16:23;5.37;;;1.95;;
73850;SDS011;62190;51.548;5.688;2022-09-03T03:18:51;6.37;;;2.20;;
73850;SDS011;62190;51.548;5.688;2022-09-03T03:21:18;6.22;;;2.50;;
73850;SDS011;62190;51.548;5.688;2022-09-03T03:23:45;3.85;;;1.70;;
73850;SDS011;62190;51.548;5.688;2022-09-03T03:26:15;3.98;;;1.77;;
73850;SDS011;62190;51.548;5.688;2022-09-03T03:28:44;3.77;;;1.70;;
73850;SDS011;62190;51.548;5.688;2022-09-03T03:31:17;2.75;;;1.60;;
73850;SDS011;62190;51.548;5.688;2022-09-03T03:33:50;3.80;;;1.80;;
73850;SDS011;62190;51.548;5.688;2022-09-03T03:36:21;2.20;;;1.40;;
73850;SDS011;62190;51.548;5.688;2022-09-03T03:38:51;3.27;;;1.75;;
73850;SDS011;62190;51.548;5.688;2022-09-03T03:41:22;3.15;;;1.60;;
73850;SDS011;62190;51.548;5.688;2022-09-03T03:43:53;3.12;;;1.90;;
73850;SDS011;62190;51.548;5.688;2022-09-03T03:46:22;3.72;;;2.05;;
73850;SDS011;62190;51.548;5.688;2022-09-03T03:48:50;5.28;;;2.58;;
73850;SDS011;62190;51.548;5.688;2022-09-03T03:51:18;2.52;;;1.70;;
73850;SDS011;62190;51.548;5.688;2022-09-03T03:53:45;4.47;;;1.75;;
73850;SDS011;62190;51.548;5.688;2022-09-03T03:56:13;5.12;;;1.85;;
73850;SDS011;62190;51.548;5.688;2022-09-03T03:58:41;6.17;;;2.30;;
73850;SDS011;62190;51.548;5.688;2022-09-03T04:01:12;4.05;;;1.90;;
73850;SDS011;62190;51.548;5.688;2022-09-03T04:03:41;3.25;;;1.92;;
73850;SDS011;62190;51.548;5.688;2022-09-03T04:06:09;4.47;;;2.35;;
73850;SDS011;62190;51.548;5.688;2022-09-03T04:08:39;4.22;;;1.98;;
73850;SDS011;62190;51.548;5.688;2022-09-03T04:11:09;2.70;;;1.50;;
73850;SDS011;62190;51.548;5.688;2022-09-03T04:13:38;3.33;;;1.87;;
73850;SDS011;62190;51.548;5.688;2022-09-03T04:16:07;2.62;;;1.80;;
73850;SDS011;62190;51.548;5.688;2022-09-03T04:18:37;5.22;;;1.72;;
73850;SDS011;62190;51.548;5.688;2022-09-03T04:21:06;5.65;;;2.00;;
73850;SDS011;62190;51.548;5.688;2022-09-03T04:23:36;3.47;;;1.80;;
73850;SDS011;62190;51.548;5.688;2022-09-03T04:26:05;3.67;;;1.60;;
73850;SDS011;62190;51.548;5.688;2022-09-03T04:28:34;4.20;;;2.35;;
73850;SDS011;62190;51.548;5.688;2022-09-03T04:31:03;4.35;;;2.12;;
73850;SDS011;62190;51.548;5.688;2022-09-03T04:33:31;3.83;;;2.20;;
73850;SDS011;62190;51.548;5.688;2022-09-03T04:36:02;4.08;;;2.08;;
73850;SDS011;62190;51.548;5.688;2022-09-03T04:38:34;5.87;;;2.77;;
73850;SDS011;62190;51.548;5.688;2022-09-03T04:41:02;3.45;;;1.95;;
73850;SDS011;62190;51.548;5.688;2022-09-03T04:43:30;6.90;;;2.40;;
73850;SDS011;62190;51.548;5.688;2022-09-03T04:45:58;5.60;;;2.42;;
73850;SDS011;62190;51.548;5.688;2022-09-03T04:48:28;3.33;;;1.75;;
73850;SDS011;62190;51.548;5.688;2022-09-03T04:53:33;3.72;;;1.95;;
73850;SDS011;62190;51.548;5.688;2022-09-03T04:56:02;5.95;;;2.33;;
73850;SDS011;62190;51.548;5.688;2022-09-03T04:58:31;4.37;;;1.95;;
73850;SDS011;62190;51.548;5.688;2022-09-03T05:01:05;4.67;;;2.20;;
73850;SDS011;62190;51.548;5.688;2022-09-03T05:03:29;5.80;;;2.02;;
73850;SDS011;62190;51.548;5.688;2022-09-03T05:05:57;7.33;;;2.10;;
73850;SDS011;62190;51.548;5.688;2022-09-03T05:08:24;5.33;;;2.00;;
73850;SDS011;62190;51.548;5.688;2022-09-03T05:10:56;6.83;;;2.33;;
73850;SDS011;62190;51.548;5.688;2022-09-03T05:13:26;3.35;;;1.70;;
73850;SDS011;62190;51.548;5.688;2022-09-03T05:16:09;5.42;;;2.52;;
73850;SDS011;62190;51.548;5.688;2022-09-03T05:18:40;4.40;;;1.90;;
73850;SDS011;62190;51.548;5.688;2022-09-03T05:21:08;7.78;;;2.50;;
73850;SDS011;62190;51.548;5.688;2022-09-03T05:23:45;6.00;;;2.27;;
73850;SDS011;62190;51.548;5.688;2022-09-03T05:26:12;4.70;;;2.10;;
73850;SDS011;62190;51.548;5.688;2022-09-03T05:28:41;3.40;;;1.90;;
73850;SDS011;62190;51.548;5.688;2022-09-03T05:31:09;6.30;;;2.25;;
73850;SDS011;62190;51.548;5.688;2022-09-03T05:33:39;9.93;;;2.55;;
73850;SDS011;62190;51.548;5.688;2022-09-03T05:36:09;5.87;;;2.20;;
73850;SDS011;62190;51.548;5.688;2022-09-03T05:38:38;7.05;;;2.00;;
73850;SDS011;62190;51.548;5.688;2022-09-03T05:41:06;4.78;;;1.85;;
73850;SDS011;62190;51.548;5.688;2022-09-03T05:43:35;3.27;;;1.72;;
73850;SDS011;62190;51.548;5.688;2022-09-03T05:46:03;5.75;;;2.10;;
73850;SDS011;62190;51.548;5.688;2022-09-03T05:48:34;8.73;;;2.20;;
73850;SDS011;62190;51.548;5.688;2022-09-03T05:51:09;4.15;;;1.80;;
73850;SDS011;62190;51.548;5.688;2022-09-03T05:53:39;3.90;;;1.72;;
73850;SDS011;62190;51.548;5.688;2022-09-03T05:56:13;5.10;;;2.17;;
73850;SDS011;62190;51.548;5.688;2022-09-03T05:58:41;5.90;;;2.20;;
73850;SDS011;62190;51.548;5.688;2022-09-03T06:01:10;8.08;;;2.45;;
73850;SDS011;62190;51.548;5.688;2022-09-03T06:03:39;3.65;;;1.60;;
73850;SDS011;62190;51.548;5.688;2022-09-03T06:06:07;5.53;;;1.72;;
73850;SDS011;62190;51.548;5.688;2022-09-03T06:08:36;5.55;;;2.08;;
73850;SDS011;62190;51.548;5.688;2022-09-03T06:11:03;2.55;;;1.80;;
73850;SDS011;62190;51.548;5.688;2022-09-03T06:13:32;3.98;;;1.75;;
73850;SDS011;62190;51.548;5.688;2022-09-03T06:16:03;5.60;;;1.92;;
73850;SDS011;62190;51.548;5.688;2022-09-03T06:18:33;4.42;;;1.47;;
73850;SDS011;62190;51.548;5.688;2022-09-03T06:21:01;3.37;;;1.70;;
73850;SDS011;62190;51.548;5.688;2022-09-03T06:23:29;4.70;;;1.87;;
73850;SDS011;62190;51.548;5.688;2022-09-03T06:26:13;5.50;;;1.40;;
73850;SDS011;62190;51.548;5.688;2022-09-03T06:28:41;3.15;;;1.60;;
73850;SDS011;62190;51.548;5.688;2022-09-03T06:31:11;5.10;;;1.50;;
73850;SDS011;62190;51.548;5.688;2022-09-03T06:33:39;3.50;;;1.22;;
73850;SDS011;62190;51.548;5.688;2022-09-03T06:36:08;9.68;;;1.65;;
73850;SDS011;62190;51.548;5.688;2022-09-03T06:38:39;5.78;;;1.40;;
73850;SDS011;62190;51.548;5.688;2022-09-03T06:41:07;3.77;;;1.22;;
73850;SDS011;62190;51.548;5.688;2022-09-03T06:43:38;4.53;;;1.25;;
73850;SDS011;62190;51.548;5.688;2022-09-03T06:46:07;3.87;;;1.50;;
73850;SDS011;62190;51.548;5.688;2022-09-03T06:48:39;6.45;;;1.20;;
73850;SDS011;62190;51.548;5.688;2022-09-03T06:51:13;4.20;;;1.00;;
73850;SDS011;62190;51.548;5.688;2022-09-03T06:53:39;4.85;;;1.20;;
73850;SDS011;62190;51.548;5.688;2022-09-03T06:56:14;2.20;;;1.00;;
73850;SDS011;62190;51.548;5.688;2022-09-03T06:58:46;1.55;;;0.90;;
73850;SDS011;62190;51.548;5.688;2022-09-03T07:01:15;4.20;;;1.07;;
73850;SDS011;62190;51.548;5.688;2022-09-03T07:03:44;3.05;;;1.20;;
73850;SDS011;62190;51.548;5.688;2022-09-03T07:06:18;3.05;;;0.98;;
73850;SDS011;62190;51.548;5.688;2022-09-03T07:08:43;7.62;;;1.70;;
73850;SDS011;62190;51.548;5.688;2022-09-03T07:11:12;5.72;;;2.00;;
73850;SDS011;62190;51.548;5.688;2022-09-03T07:13:42;3.77;;;1.17;;
73850;SDS011;62190;51.548;5.688;2022-09-03T07:16:13;6.53;;;1.15;;
73850;SDS011;62190;51.548;5.688;2022-09-03T07:18:47;3.83;;;1.30;;
73850;SDS011;62190;51.548;5.688;2022-09-03T07:21:22;6.42;;;1.60;;
73850;SDS011;62190;51.548;5.688;2022-09-03T07:23:50;4.80;;;1.40;;
73850;SDS011;62190;51.548;5.688;2022-09-03T07:26:22;3.52;;;1.50;;
73850;SDS011;62190;51.548;5.688;2022-09-03T07:29:11;5.97;;;1.77;;
73850;SDS011;62190;51.548;5.688;2022-09-03T07:31:40;4.42;;;2.22;;
73850;SDS011;62190;51.548;5.688;2022-09-03T07:34:09;5.40;;;1.15;;
73850;SDS011;62190;51.548;5.688;2022-09-03T07:36:39;3.62;;;1.15;;
73850;SDS011;62190;51.548;5.688;2022-09-03T07:39:09;4.35;;;1.55;;
73850;SDS011;62190;51.548;5.688;2022-09-03T07:41:37;5.28;;;1.42;;
73850;SDS011;62190;51.548;5.688;2022-09-03T07:44:07;4.95;;;1.52;;
73850;SDS011;62190;51.548;5.688;2022-09-03T07:46:35;3.72;;;1.15;;
73850;SDS011;62190;51.548;5.688;2022-09-03T07:49:03;5.00;;;1.30;;
73850;SDS011;62190;51.548;5.688;2022-09-03T07:51:32;8.90;;;1.40;;
73850;SDS011;62190;51.548;5.688;2022-09-03T07:54:02;5.08;;;1.20;;
73850;SDS011;62190;51.548;5.688;2022-09-03T07:56:32;3.92;;;1.37;;
73850;SDS011;62190;51.548;5.688;2022-09-03T07:59:00;6.15;;;1.50;;
73850;SDS011;62190;51.548;5.688;2022-09-03T08:01:29;6.72;;;1.37;;
73850;SDS011;62190;51.548;5.688;2022-09-03T08:03:57;5.37;;;1.25;;
73850;SDS011;62190;51.548;5.688;2022-09-03T08:06:25;7.28;;;1.55;;
73850;SDS011;62190;51.548;5.688;2022-09-03T08:08:54;2.72;;;1.02;;
73850;SDS011;62190;51.548;5.688;2022-09-03T08:11:23;5.65;;;1.50;;
73850;SDS011;62190;51.548;5.688;2022-09-03T08:13:53;3.92;;;1.00;;
73850;SDS011;62190;51.548;5.688;2022-09-03T08:16:30;4.83;;;0.98;;
73850;SDS011;62190;51.548;5.688;2022-09-03T08:18:59;5.47;;;1.20;;
73850;SDS011;62190;51.548;5.688;2022-09-03T08:21:27;6.20;;;1.47;;
73850;SDS011;62190;51.548;5.688;2022-09-03T08:23:55;3.47;;;1.12;;
73850;SDS011;62190;51.548;5.688;2022-09-03T08:26:30;2.52;;;1.00;;
73850;SDS011;62190;51.548;5.688;2022-09-03T08:29:01;3.72;;;0.68;;
73850;SDS011;62190;51.548;5.688;2022-09-03T08:31:30;3.35;;;1.17;;
73850;SDS011;62190;51.548;5.688;2022-09-03T08:33:59;5.55;;;1.17;;
73850;SDS011;62190;51.548;5.688;2022-09-03T08:36:30;4.08;;;1.52;;
73850;SDS011;62190;51.548;5.688;2022-09-03T08:38:59;4.65;;;1.10;;
73850;SDS011;62190;51.548;5.688;2022-09-03T08:41:34;7.10;;;1.30;;
73850;SDS011;62190;51.548;5.688;2022-09-03T08:47:15;7.35;;;1.27;;
73850;SDS011;62190;51.548;5.688;2022-09-03T08:49:49;4.80;;;1.42;;
73850;SDS011;62190;51.548;5.688;2022-09-03T08:52:25;4.15;;;1.02;;
73850;SDS011;62190;51.548;5.688;2022-09-03T08:55:13;4.10;;;1.10;;
73850;SDS011;62190;51.548;5.688;2022-09-03T08:57:47;5.30;;;1.40;;
73850;SDS011;62190;51.548;5.688;2022-09-03T09:00:16;3.58;;;1.50;;
73850;SDS011;62190;51.548;5.688;2022-09-03T09:02:57;4.47;;;1.47;;
73850;SDS011;62190;51.548;5.688;2022-09-03T09:05:38;7.35;;;2.27;;
73850;SDS011;62190;51.548;5.688;2022-09-03T09:08:35;3.98;;;1.52;;
73850;SDS011;62190;51.548;5.688;2022-09-03T09:10:48;8.38;;;1.57;;
73850;SDS011;62190;51.548;5.688;2022-09-03T09:13:33;6.53;;;1.85;;
73850;SDS011;62190;51.548;5.688;2022-09-03T09:16:28;5.67;;;1.87;;
73850;SDS011;62190;51.548;5.688;2022-09-03T09:22:02;3.72;;;1.35;;
73850;SDS011;62190;51.548;5.688;2022-09-03T09:24:41;3.77;;;1.20;;
73850;SDS011;62190;51.548;5.688;2022-09-03T09:27:13;8.73;;;1.82;;
73850;SDS011;62190;51.548;5.688;2022-09-03T09:29:42;4.60;;;1.65;;
73850;SDS011;62190;51.548;5.688;2022-09-03T09:32:12;5.90;;;2.30;;
73850;SDS011;62190;51.548;5.688;2022-09-03T09:34:42;2.90;;;1.80;;
73850;SDS011;62190;51.548;5.688;2022-09-03T09:37:10;6.95;;;1.50;;
73850;SDS011;62190;51.548;5.688;2022-09-03T09:39:39;5.65;;;1.30;;
73850;SDS011;62190;51.548;5.688;2022-09-03T09:42:08;8.90;;;1.50;;
73850;SDS011;62190;51.548;5.688;2022-09-03T09:44:38;3.47;;;1.20;;
73850;SDS011;62190;51.548;5.688;2022-09-03T09:47:11;2.70;;;1.40;;
73850;SDS011;62190;51.548;5.688;2022-09-03T09:49:49;3.22;;;1.40;;
73850;SDS011;62190;51.548;5.688;2022-09-03T09:52:13;6.33;;;1.20;;
73850;SDS011;62190;51.548;5.688;2022-09-03T09:54:42;2.98;;;0.98;;
73850;SDS011;62190;51.548;5.688;2022-09-03T09:57:14;3.60;;;1.10;;
73850;SDS011;62190;51.548;5.688;2022-09-03T09:59:43;5.20;;;1.20;;
73850;SDS011;62190;51.548;5.688;2022-09-03T10:02:12;3.12;;;1.00;;
73850;SDS011;62190;51.548;5.688;2022-09-03T10:04:41;5.33;;;1.17;;
73850;SDS011;62190;51.548;5.688;2022-09-03T10:07:25;3.65;;;1.40;;
73850;SDS011;62190;51.548;5.688;2022-09-03T10:12:34;5.25;;;2.42;;
73850;SDS011;62190;51.548;5.688;2022-09-03T10:15:09;7.75;;;1.75;;
73850;SDS011;62190;51.548;5.688;2022-09-03T10:18:14;3.65;;;1.00;;
73850;SDS011;62190;51.548;5.688;2022-09-03T10:20:54;3.90;;;1.25;;
73850;SDS011;62190;51.548;5.688;2022-09-03T10:26:22;5.05;;;1.00;;
73850;SDS011;62190;51.548;5.688;2022-09-03T10:28:56;4.07;;;1.30;;
73850;SDS011;62190;51.548;5.688;2022-09-03T10:31:33;4.67;;;0.88;;
73850;SDS011;62190;51.548;5.688;2022-09-03T10:37:01;2.30;;;0.95;;
73850;SDS011;62190;51.548;5.688;2022-09-03T10:51:17;3.17;;;1.00;;
73850;SDS011;62190;51.548;5.688;2022-09-03T10:59:15;3.55;;;0.93;;
73850;SDS011;62190;51.548;5.688;2022-09-03T11:01:46;4.30;;;1.15;;
73850;SDS011;62190;51.548;5.688;2022-09-03T11:07:11;4.80;;;1.35;;
73850;SDS011;62190;51.548;5.688;2022-09-03T11:09:38;1.95;;;0.90;;
73850;SDS011;62190;51.548;5.688;2022-09-03T11:12:22;2.27;;;0.85;;
73850;SDS011;62190;51.548;5.688;2022-09-03T11:15:05;2.80;;;1.00;;
73850;SDS011;62190;51.548;5.688;2022-09-03T11:17:41;5.37;;;0.70;;
73850;SDS011;62190;51.548;5.688;2022-09-03T11:22:49;2.98;;;0.85;;
73850;SDS011;62190;51.548;5.688;2022-09-03T11:25:19;3.45;;;0.93;;
73850;SDS011;62190;51.548;5.688;2022-09-03T11:27:59;3.75;;;1.07;;
73850;SDS011;62190;51.548;5.688;2022-09-03T11:30:36;2.35;;;0.85;;
73850;SDS011;62190;51.548;5.688;2022-09-03T11:33:07;4.62;;;1.37;;
73850;SDS011;62190;51.548;5.688;2022-09-03T11:35:37;4.17;;;0.90;;
73850;SDS011;62190;51.548;5.688;2022-09-03T11:40:57;6.85;;;0.93;;
73850;SDS011;62190;51.548;5.688;2022-09-03T11:43:28;4.80;;;0.88;;
73850;SDS011;62190;51.548;5.688;2022-09-03T11:48:40;3.42;;;0.95;;
73850;SDS011;62190;51.548;5.688;2022-09-03T11:53:59;6.35;;;1.27;;
73850;SDS011;62190;51.548;5.688;2022-09-03T11:56:34;4.95;;;1.30;;
73850;SDS011;62190;51.548;5.688;2022-09-03T11:59:14;2.80;;;1.15;;
73850;SDS011;62190;51.548;5.688;2022-09-03T12:01:42;4.95;;;1.20;;
73850;SDS011;62190;51.548;5.688;2022-09-03T12:04:16;3.83;;;1.10;;
73850;SDS011;62190;51.548;5.688;2022-09-03T12:12:51;1.98;;;1.10;;
73850;SDS011;62190;51.548;5.688;2022-09-03T12:15:30;4.42;;;1.00;;
73850;SDS011;62190;51.548;5.688;2022-09-03T12:18:04;3.77;;;1.22;;
73850;SDS011;62190;51.548;5.688;2022-09-03T12:23:13;5.95;;;1.67;;
73850;SDS011;62190;51.548;5.688;2022-09-03T12:26:05;3.42;;;1.02;;
73850;SDS011;62190;51.548;5.688;2022-09-03T12:28:37;3.67;;;1.02;;
73850;SDS011;62190;51.548;5.688;2022-09-03T12:31:16;3.87;;;1.10;;
73850;SDS011;62190;51.548;5.688;2022-09-03T12:33:52;4.08;;;1.15;;
73850;SDS011;62190;51.548;5.688;2022-09-03T12:36:23;3.12;;;1.10;;
73850;SDS011;62190;51.548;5.688;2022-09-03T12:38:51;3.42;;;1.00;;
73850;SDS011;62190;51.548;5.688;2022-09-03T12:41:26;4.72;;;1.90;;
73850;SDS011;62190;51.548;5.688;2022-09-03T12:43:52;3.45;;;1.20;;
73850;SDS011;62190;51.548;5.688;2022-09-03T12:46:24;5.17;;;1.77;;
73850;SDS011;62190;51.548;5.688;2022-09-03T12:49:00;2.35;;;1.32;;
73850;SDS011;62190;51.548;5.688;2022-09-03T12:51:41;4.67;;;1.40;;
73850;SDS011;62190;51.548;5.688;2022-09-03T12:54:05;5.07;;;1.37;;
73850;SDS011;62190;51.548;5.688;2022-09-03T12:56:37;4.90;;;1.42;;
73850;SDS011;62190;51.548;5.688;2022-09-03T12:59:06;5.35;;;1.60;;
73850;SDS011;62190;51.548;5.688;2022-09-03T13:01:38;5.05;;;1.52;;
73850;SDS011;62190;51.548;5.688;2022-09-03T13:04:11;6.58;;;1.70;;
73850;SDS011;62190;51.548;5.688;2022-09-03T13:06:46;4.20;;;1.33;;
73850;SDS011;62190;51.548;5.688;2022-09-03T13:09:21;4.65;;;1.40;;
73850;SDS011;62190;51.548;5.688;2022-09-03T13:11:49;6.05;;;1.52;;
73850;SDS011;62190;51.548;5.688;2022-09-03T13:14:20;3.17;;;1.42;;
73850;SDS011;62190;51.548;5.688;2022-09-03T13:16:54;4.55;;;1.52;;
73850;SDS011;62190;51.548;5.688;2022-09-03T13:22:33;3.55;;;1.65;;
73850;SDS011;62190;51.548;5.688;2022-09-03T13:33:27;6.05;;;2.08;;
73850;SDS011;62190;51.548;5.688;2022-09-03T13:36:02;5.25;;;1.70;;
73850;SDS011;62190;51.548;5.688;2022-09-03T13:41:41;4.53;;;1.87;;
73850;SDS011;62190;51.548;5.688;2022-09-03T13:44:19;6.97;;;2.30;;
73850;SDS011;62190;51.548;5.688;2022-09-03T13:47:32;5.37;;;1.87;;
73850;SDS011;62190;51.548;5.688;2022-09-03T13:49:36;6.47;;;1.77;;
73850;SDS011;62190;51.548;5.688;2022-09-03T13:52:37;4.70;;;2.20;;
73850;SDS011;62190;51.548;5.688;2022-09-03T13:55:08;4.37;;;1.50;;
73850;SDS011;62190;51.548;5.688;2022-09-03T14:00:41;2.60;;;1.37;;
73850;SDS011;62190;51.548;5.688;2022-09-03T14:03:34;3.98;;;1.62;;
73850;SDS011;62190;51.548;5.688;2022-09-03T14:06:17;3.08;;;1.57;;
73850;SDS011;62190;51.548;5.688;2022-09-03T14:08:58;5.17;;;1.57;;
73850;SDS011;62190;51.548;5.688;2022-09-03T14:17:31;3.95;;;1.60;;
73850;SDS011;62190;51.548;5.688;2022-09-03T14:19:55;5.60;;;1.77;;
73850;SDS011;62190;51.548;5.688;2022-09-03T14:22:41;5.05;;;1.62;;
73850;SDS011;62190;51.548;5.688;2022-09-03T14:25:25;5.50;;;1.85;;
73850;SDS011;62190;51.548;5.688;2022-09-03T14:27:41;4.75;;;1.87;;
73850;SDS011;62190;51.548;5.688;2022-09-03T14:30:17;6.05;;;2.00;;
73850;SDS011;62190;51.548;5.688;2022-09-03T14:35:45;4.87;;;2.20;;
73850;SDS011;62190;51.548;5.688;2022-09-03T14:46:29;6.58;;;1.67;;
73850;SDS011;62190;51.548;5.688;2022-09-03T14:54:58;5.78;;;2.30;;
73850;SDS011;62190;51.548;5.688;2022-09-03T14:57:30;5.45;;;2.25;;
73850;SDS011;62190;51.548;5.688;2022-09-03T15:00:04;5.15;;;1.70;;
73850;SDS011;62190;51.548;5.688;2022-09-03T15:10:54;4.78;;;1.60;;
73850;SDS011;62190;51.548;5.688;2022-09-03T15:13:19;2.15;;;1.65;;
73850;SDS011;62190;51.548;5.688;2022-09-03T15:16:04;4.47;;;1.92;;
73850;SDS011;62190;51.548;5.688;2022-09-03T15:29:40;6.17;;;1.85;;
73850;SDS011;62190;51.548;5.688;2022-09-03T15:38:09;6.15;;;1.82;;
73850;SDS011;62190;51.548;5.688;2022-09-03T15:40:47;7.42;;;2.35;;
73850;SDS011;62190;51.548;5.688;2022-09-03T15:43:16;7.62;;;2.67;;
73850;SDS011;62190;51.548;5.688;2022-09-03T15:49:00;4.10;;;1.75;;
73850;SDS011;62190;51.548;5.688;2022-09-03T15:53:40;5.28;;;2.10;;
73850;SDS011;62190;51.548;5.688;2022-09-03T16:01:51;5.67;;;1.90;;
73850;SDS011;62190;51.548;5.688;2022-09-03T16:04:21;4.10;;;1.92;;
73850;SDS011;62190;51.548;5.688;2022-09-03T16:06:57;3.60;;;1.92;;
73850;SDS011;62190;51.548;5.688;2022-09-03T16:09:55;3.33;;;2.05;;
73850;SDS011;62190;51.548;5.688;2022-09-03T16:15:29;7.30;;;2.00;;
73850;SDS011;62190;51.548;5.688;2022-09-03T16:20:56;7.28;;;3.20;;
73850;SDS011;62190;51.548;5.688;2022-09-03T16:23:37;5.85;;;2.08;;
73850;SDS011;62190;51.548;5.688;2022-09-03T16:29:23;6.22;;;2.60;;
73850;SDS011;62190;51.548;5.688;2022-09-03T16:36:57;3.95;;;2.05;;
73850;SDS011;62190;51.548;5.688;2022-09-03T16:43:33;6.30;;;2.77;;
73850;SDS011;62190;51.548;5.688;2022-09-03T16:50:45;7.90;;;2.37;;
73850;SDS011;62190;51.548;5.688;2022-09-03T16:53:27;3.87;;;2.20;;
73850;SDS011;62190;51.548;5.688;2022-09-03T16:58:49;3.42;;;2.08;;
73850;SDS011;62190;51.548;5.688;2022-09-03T17:10:16;5.15;;;1.60;;
73850;SDS011;62190;51.548;5.688;2022-09-03T17:12:50;3.92;;;1.98;;
73850;SDS011;62190;51.548;5.688;2022-09-03T17:18:15;2.83;;;2.02;;
73850;SDS011;62190;51.548;5.688;2022-09-03T17:23:47;3.62;;;1.80;;
73850;SDS011;62190;51.548;5.688;2022-09-03T17:26:27;3.98;;;2.10;;
73850;SDS011;62190;51.548;5.688;2022-09-03T17:37:33;4.83;;;2.10;;
73850;SDS011;62190;51.548;5.688;2022-09-03T17:40:08;5.03;;;2.20;;
73850;SDS011;62190;51.548;5.688;2022-09-03T17:42:53;8.95;;;2.35;;
73850;SDS011;62190;51.548;5.688;2022-09-03T17:48:12;3.95;;;2.02;;
73850;SDS011;62190;51.548;5.688;2022-09-03T17:50:48;9.23;;;2.35;;
73850;SDS011;62190;51.548;5.688;2022-09-03T17:53:26;4.87;;;2.02;;
73850;SDS011;62190;51.548;5.688;2022-09-03T17:55:59;4.00;;;2.40;;
73850;SDS011;62190;51.548;5.688;2022-09-03T17:58:42;5.05;;;2.08;;
73850;SDS011;62190;51.548;5.688;2022-09-03T18:01:16;7.92;;;2.22;;
73850;SDS011;62190;51.548;5.688;2022-09-03T18:17:44;7.62;;;2.70;;
73850;SDS011;62190;51.548;5.688;2022-09-03T18:20:10;4.12;;;2.27;;
73850;SDS011;62190;51.548;5.688;2022-09-03T18:23:00;4.05;;;2.20;;
73850;SDS011;62190;51.548;5.688;2022-09-03T18:26:07;6.20;;;2.45;;
73850;SDS011;62190;51.548;5.688;2022-09-03T18:28:58;7.60;;;2.35;;
73850;SDS011;62190;51.548;5.688;2022-09-03T18:31:46;5.65;;;2.95;;
73850;SDS011;62190;51.548;5.688;2022-09-03T18:34:32;5.35;;;2.87;;
73850;SDS011;62190;51.548;5.688;2022-09-03T18:37:22;7.78;;;2.83;;
73850;SDS011;62190;51.548;5.688;2022-09-03T18:40:10;6.75;;;2.85;;
73850;SDS011;62190;51.548;5.688;2022-09-03T18:43:05;5.70;;;2.70;;
73850;SDS011;62190;51.548;5.688;2022-09-03T18:46:08;3.15;;;2.40;;
73850;SDS011;62190;51.548;5.688;2022-09-03T18:55:08;4.65;;;2.80;;
73850;SDS011;62190;51.548;5.688;2022-09-03T18:58:06;5.58;;;2.85;;
73850;SDS011;62190;51.548;5.688;2022-09-03T19:01:09;3.62;;;2.55;;
73850;SDS011;62190;51.548;5.688;2022-09-03T19:10:47;5.22;;;3.35;;
73850;SDS011;62190;51.548;5.688;2022-09-03T19:13:44;10.53;;;4.17;;
73850;SDS011;62190;51.548;5.688;2022-09-03T19:16:42;5.28;;;3.98;;
73850;SDS011;62190;51.548;5.688;2022-09-03T19:22:35;8.80;;;4.55;;
73850;SDS011;62190;51.548;5.688;2022-09-03T19:25:22;7.28;;;4.45;;
73850;SDS011;62190;51.548;5.688;2022-09-03T19:28:21;7.78;;;5.65;;
73850;SDS011;62190;51.548;5.688;2022-09-03T19:37:25;8.20;;;5.17;;
73850;SDS011;62190;51.548;5.688;2022-09-03T19:43:45;8.50;;;5.50;;
73850;SDS011;62190;51.548;5.688;2022-09-03T19:46:50;11.90;;;6.83;;
73850;SDS011;62190;51.548;5.688;2022-09-03T19:52:49;9.75;;;6.42;;
73850;SDS011;62190;51.548;5.688;2022-09-03T19:55:43;9.55;;;5.70;;
73850;SDS011;62190;51.548;5.688;2022-09-03T19:58:39;10.68;;;5.72;;
73850;SDS011;62190;51.548;5.688;2022-09-03T20:01:32;11.55;;;6.53;;
73850;SDS011;62190;51.548;5.688;2022-09-03T20:04:16;10.00;;;6.60;;